Time;durP1;ratioP1;P1;durP2;ratioP2;P2;SDS_P1;SDS_P2;PMS_P1;PMS_P2;Temp;Humidity;BMP_temperature;BMP_pressure;BME280_temperature;BME280_humidity;BME280_pressure;Samples;Min_cycle;Max_cycle;Signal;HPM_P1;HPM_P2
2022/11/12 00:02:29;;;;;;;1.38;0.22;;;20.70;55.50;;;;;;5088307;28;20040;-56
2022/11/12 00:05:15;;;;;;;0.70;0.55;;;20.70;55.40;;;;;;5088203;28;20064;-52
2022/11/12 00:08:02;;;;;;;1.17;0.45;;;20.70;55.30;;;;;;5088456;28;20036;-54
2022/11/12 00:10:47;;;;;;;2.30;0.75;;;20.70;55.30;;;;;;5088548;28;20036;-51
2022/11/12 00:13:34;;;;;;;0.80;0.50;;;20.70;55.20;;;;;;5087983;28;20040;-56
2022/11/12 00:16:20;;;;;;;1.77;1.33;;;20.70;55.20;;;;;;5087339;28;20044;-56
2022/11/12 00:19:06;;;;;;;0.90;0.22;;;20.60;55.10;;;;;;5088065;28;20040;-56
2022/11/12 00:21:51;;;;;;;0.63;0.35;;;20.60;55.10;;;;;;5088173;28;20119;-55
2022/11/12 00:24:36;;;;;;;0.75;0.40;;;20.60;55.10;;;;;;5087910;28;20040;-54
2022/11/12 00:27:22;;;;;;;0.30;0.30;;;20.60;55.10;;;;;;5088155;28;20059;-55
2022/11/12 00:30:10;;;;;;;3.53;0.50;;;20.60;55.10;;;;;;5087917;28;20536;-57
2022/11/12 00:32:55;;;;;;;0.45;0.43;;;20.70;55.10;;;;;;5088121;28;20036;-59
2022/11/12 00:35:41;;;;;;;1.35;0.50;;;20.70;55.00;;;;;;5088100;28;20048;-56
2022/11/12 00:38:26;;;;;;;1.80;1.20;;;20.60;55.00;;;;;;5087985;28;20109;-57
2022/11/12 00:41:12;;;;;;;1.40;0.38;;;20.60;55.00;;;;;;5093748;28;20032;-55
2022/11/12 00:43:57;;;;;;;1.17;0.68;;;20.60;54.90;;;;;;5108057;28;20050;-56
2022/11/12 00:46:44;;;;;;;1.27;0.57;;;20.60;55.00;;;;;;5067675;28;20063;-57
2022/11/12 00:49:30;;;;;;;2.78;0.80;;;20.60;55.10;;;;;;5067830;28;20040;-57
2022/11/12 00:52:16;;;;;;;0.85;0.63;;;20.60;55.10;;;;;;5079673;28;20079;-58
2022/11/12 00:55:01;;;;;;;0.65;0.30;;;20.60;55.10;;;;;;5087717;28;20044;-58
2022/11/12 00:57:47;;;;;;;0.93;0.40;;;20.60;55.10;;;;;;5087740;28;20113;-58
2022/11/12 01:00:32;;;;;;;2.80;0.63;;;20.60;55.10;;;;;;5087896;28;20059;-58
2022/11/12 01:03:19;;;;;;;0.57;0.35;;;20.60;55.10;;;;;;5054844;28;20095;-55
2022/11/12 01:06:07;;;;;;;1.40;0.50;;;20.60;55.10;;;;;;5071519;28;20052;-57
2022/11/12 01:08:52;;;;;;;1.15;0.35;;;20.60;55.20;;;;;;5071763;28;20406;-56
2022/11/12 01:11:41;;;;;;;1.10;1.00;;;20.60;55.20;;;;;;5083106;28;20040;-58
2022/11/12 01:14:26;;;;;;;1.13;0.65;;;20.60;55.20;;;;;;5091341;28;20107;-59
2022/11/12 01:17:12;;;;;;;3.72;0.57;;;20.60;55.20;;;;;;5091539;28;20148;-56
2022/11/12 01:19:59;;;;;;;0.70;0.70;;;20.60;55.20;;;;;;5091658;28;20067;-58
2022/11/12 01:22:45;;;;;;;0.75;0.73;;;20.50;55.10;;;;;;5091660;28;20047;-58
2022/11/12 01:25:30;;;;;;;0.30;0.30;;;20.60;55.20;;;;;;5091374;28;20044;-55
2022/11/12 01:28:15;;;;;;;1.65;0.63;;;20.60;55.20;;;;;;5091009;28;20568;-56
2022/11/12 01:31:11;;;;;;;0.75;0.38;;;20.50;55.20;;;;;;5073244;28;20520;-57
2022/11/12 01:33:58;;;;;;;1.48;0.65;;;20.60;55.40;;;;;;5091417;28;20043;-56
2022/11/12 01:36:45;;;;;;;1.05;0.45;;;20.60;55.50;;;;;;5091338;28;20044;-58
2022/11/12 01:39:31;;;;;;;1.40;0.70;;;20.60;55.50;;;;;;5091251;28;20040;-58
2022/11/12 01:42:16;;;;;;;2.92;0.70;;;20.60;55.60;;;;;;5072193;28;20512;-56
2022/11/12 01:45:02;;;;;;;0.43;0.43;;;20.60;55.70;;;;;;5091132;28;20055;-55
2022/11/12 01:47:51;;;;;;;1.50;0.82;;;20.60;55.80;;;;;;5090607;28;20066;-56
2022/11/12 01:50:39;;;;;;;1.02;0.65;;;20.60;55.90;;;;;;5089222;28;20051;-57
2022/11/12 01:53:29;;;;;;;1.08;0.50;;;20.60;55.90;;;;;;5070700;28;20045;-59
2022/11/12 01:56:16;;;;;;;0.63;0.30;;;20.60;56.00;;;;;;5073175;28;20051;-56
2022/11/12 01:59:04;;;;;;;0.43;0.30;;;20.60;56.00;;;;;;5090915;28;20040;-57
2022/11/12 02:01:50;;;;;;;0.85;0.40;;;20.70;56.10;;;;;;5090646;28;20048;-58
2022/11/12 02:04:37;;;;;;;0.75;0.47;;;20.60;56.10;;;;;;5090669;28;20044;-55
2022/11/12 02:07:24;;;;;;;0.82;0.45;;;20.70;56.10;;;;;;5091078;28;20051;-58
2022/11/12 02:10:13;;;;;;;1.40;0.28;;;20.60;56.10;;;;;;5090888;28;20032;-53
2022/11/12 02:16:03;;;;;;;1.10;0.43;;;20.70;56.20;;;;;;5089983;28;20044;-53
2022/11/12 02:18:49;;;;;;;1.45;0.30;;;20.70;56.20;;;;;;5090420;28;20036;-58
2022/11/12 02:21:36;;;;;;;0.47;0.20;;;20.70;56.20;;;;;;5090654;28;20044;-57
2022/11/12 02:24:32;;;;;;;1.75;0.50;;;20.70;56.20;;;;;;5090518;28;20123;-57
2022/11/12 02:27:18;;;;;;;1.02;0.60;;;20.80;56.30;;;;;;5090164;28;20114;-55
2022/11/12 02:30:05;;;;;;;1.50;0.40;;;20.70;56.30;;;;;;5090364;28;20670;-59
2022/11/12 02:32:50;;;;;;;0.30;0.28;;;20.70;56.30;;;;;;5090275;28;20504;-60
2022/11/12 02:35:36;;;;;;;6.03;0.55;;;20.70;56.30;;;;;;5090172;28;20040;-56
2022/11/12 02:38:23;;;;;;;;;;;20.70;56.30;;;;;;5092164;28;20040;-59
2022/11/12 02:41:09;;;;;;;0.70;0.50;;;20.70;56.20;;;;;;5070920;28;19920;-56
2022/11/12 02:43:55;;;;;;;1.77;0.98;;;20.70;56.40;;;;;;5069553;28;20532;-56
2022/11/12 02:46:40;;;;;;;0.80;0.35;;;20.70;56.40;;;;;;5069631;28;20044;-57
2022/11/12 02:49:25;;;;;;;0.95;0.22;;;20.70;56.40;;;;;;5069946;28;20052;-59
2022/11/12 02:52:11;;;;;;;0.95;0.30;;;20.70;56.30;;;;;;5080943;28;20101;-58
2022/11/12 02:54:58;;;;;;;0.25;0.25;;;20.80;56.40;;;;;;5089647;28;20521;-57
2022/11/12 02:57:44;;;;;;;1.58;0.30;;;20.80;56.40;;;;;;5089761;28;20066;-57
2022/11/12 03:00:29;;;;;;;0.70;0.68;;;20.80;56.40;;;;;;5089889;28;20496;-58
2022/11/12 03:03:15;;;;;;;1.10;0.50;;;20.80;56.30;;;;;;5089614;28;20504;-59
2022/11/12 03:06:01;;;;;;;2.30;0.60;;;20.80;56.30;;;;;;5089610;28;20048;-57
2022/11/12 03:08:47;;;;;;;0.30;0.20;;;20.80;56.30;;;;;;5089285;28;20062;-58
2022/11/12 03:11:34;;;;;;;0.52;0.45;;;20.80;56.30;;;;;;5089612;28;20045;-58
2022/11/12 03:14:20;;;;;;;0.80;0.30;;;20.80;56.30;;;;;;5089308;28;20036;-57
2022/11/12 03:17:06;;;;;;;0.63;0.60;;;20.80;56.20;;;;;;5089339;28;20040;-57
2022/11/12 03:19:51;;;;;;;1.50;0.45;;;20.80;56.10;;;;;;5089585;28;20393;-56
2022/11/12 03:22:37;;;;;;;0.75;0.45;;;20.90;56.20;;;;;;5089225;28;20044;-58
2022/11/12 03:25:23;;;;;;;0.47;0.45;;;20.90;56.80;;;;;;5089223;28;20055;-58
2022/11/12 03:28:13;;;;;;;0.40;0.40;;;20.90;56.00;;;;;;5084255;28;20029;-59
2022/11/12 03:31:00;;;;;;;1.20;0.45;;;20.90;56.00;;;;;;5068828;28;20509;-58
2022/11/12 03:33:46;;;;;;;1.35;0.65;;;20.90;56.00;;;;;;5068517;28;20041;-57
2022/11/12 03:36:32;;;;;;;1.55;0.50;;;20.90;55.90;;;;;;5068823;28;20052;-56
2022/11/12 03:39:17;;;;;;;0.60;0.55;;;20.90;55.90;;;;;;5068490;28;20053;-54
2022/11/12 03:42:03;;;;;;;0.38;0.38;;;20.90;55.90;;;;;;5068361;28;20052;-59
2022/11/12 03:44:50;;;;;;;1.65;0.68;;;20.90;55.90;;;;;;5076569;28;20173;-58
2022/11/12 03:47:36;;;;;;;0.93;0.75;;;21.00;55.90;;;;;;5088764;28;20036;-57
2022/11/12 03:50:24;;;;;;;0.65;0.65;;;21.00;55.90;;;;;;5088887;28;20398;-58
2022/11/12 03:53:10;;;;;;;0.88;0.88;;;21.00;56.00;;;;;;5087870;28;20044;-58
2022/11/12 03:55:56;;;;;;;0.47;0.30;;;21.00;56.00;;;;;;5092797;28;20043;-57
2022/11/12 03:58:42;;;;;;;8.43;0.30;;;21.00;55.90;;;;;;5108589;28;20043;-58
2022/11/12 04:01:28;;;;;;;2.60;1.17;;;21.00;55.90;;;;;;5109098;28;20101;-58
2022/11/12 04:04:15;;;;;;;2.05;0.50;;;21.00;55.90;;;;;;5108973;28;20518;-55
2022/11/12 04:10:04;;;;;;;8.27;1.13;;;21.00;55.80;;;;;;5108969;28;20043;-54
2022/11/12 04:22:03;;;;;;;1.40;0.65;;;21.00;55.70;;;;;;5087856;28;20135;-60
2022/11/12 04:27:52;;;;;;;3.08;0.70;;;21.00;55.70;;;;;;5087888;28;20040;-60
2022/11/12 04:30:36;;;;;;;5.63;0.82;;;21.00;55.60;;;;;;5088099;28;20044;-60
2022/11/12 04:33:22;;;;;;;5.93;0.73;;;21.00;55.50;;;;;;5101260;28;20047;-60
2022/11/12 04:36:09;;;;;;;2.22;0.40;;;21.00;55.40;;;;;;5090001;28;20482;-56
2022/11/12 04:38:54;;;;;;;1.27;0.70;;;21.00;55.30;;;;;;5108328;28;20048;-56
2022/11/12 04:45:05;;;;;;;0.60;0.50;;;21.00;55.20;;;;;;5101949;28;20036;-55
2022/11/12 04:47:50;;;;;;;0.75;0.40;;;21.00;55.10;;;;;;5087796;28;20052;-55
2022/11/12 04:50:36;;;;;;;0.60;0.60;;;21.00;55.10;;;;;;5087758;28;20424;-57
2022/11/12 04:53:23;;;;;;;1.60;0.70;;;21.00;55.10;;;;;;5087829;28;20119;-53
2022/11/12 04:56:09;;;;;;;2.25;0.40;;;21.00;55.00;;;;;;5087925;28;20052;-57
2022/11/12 04:58:54;;;;;;;0.83;0.83;;;21.00;55.00;;;;;;5087926;28;20075;-58
2022/11/12 05:01:40;;;;;;;1.03;0.50;;;21.00;54.90;;;;;;5087795;28;20044;-58
2022/11/12 05:04:27;;;;;;;0.65;0.65;;;21.00;54.90;;;;;;5087346;28;20724;-58
2022/11/12 05:07:14;;;;;;;0.60;0.32;;;21.00;54.80;;;;;;5067586;28;20040;-56
2022/11/12 05:10:00;;;;;;;1.08;0.47;;;21.00;54.80;;;;;;5067866;28;20127;-57
2022/11/12 05:12:46;;;;;;;2.25;0.35;;;21.00;54.70;;;;;;5067428;28;20045;-58
2022/11/12 05:15:31;;;;;;;1.02;0.88;;;21.00;54.60;;;;;;5079422;28;20071;-58
2022/11/12 05:18:17;;;;;;;0.50;0.40;;;21.00;54.60;;;;;;5087594;28;20519;-59
2022/11/12 05:22:04;;;;;;;0.50;0.30;;;21.00;54.50;;;;;;5087234;28;20040;-57
2022/11/12 05:24:09;;;;;;;1.60;0.60;;;21.00;54.50;;;;;;5087701;28;20691;-57
2022/11/12 05:26:56;;;;;;;0.63;0.60;;;21.00;54.50;;;;;;5074675;28;20045;-58
2022/11/12 05:29:42;;;;;;;0.77;0.40;;;21.00;54.50;;;;;;5067235;28;20052;-59
2022/11/12 05:32:28;;;;;;;2.55;0.45;;;21.00;54.50;;;;;;5067296;28;20116;-60
2022/11/12 05:35:14;;;;;;;2.55;0.40;;;21.00;54.50;;;;;;5067282;28;20036;-60
2022/11/12 05:37:59;;;;;;;2.38;0.30;;;21.00;54.50;;;;;;5072029;28;20052;-58
2022/11/12 05:40:45;;;;;;;0.20;0.20;;;20.90;54.40;;;;;;5081892;28;20046;-59
2022/11/12 05:43:32;;;;;;;4.03;0.77;;;20.90;54.30;;;;;;5087383;28;20052;-59
2022/11/12 05:46:18;;;;;;;0.50;0.35;;;20.90;54.30;;;;;;5087469;28;20048;-59
2022/11/12 05:49:03;;;;;;;1.13;0.40;;;20.90;54.30;;;;;;5087048;28;20051;-57
2022/11/12 05:51:49;;;;;;;0.43;0.43;;;20.90;54.90;;;;;;5090538;28;20101;-59
2022/11/12 05:54:35;;;;;;;0.57;0.20;;;20.90;54.30;;;;;;5083820;28;20052;-59
2022/11/12 05:57:20;;;;;;;0.20;0.20;;;20.90;54.20;;;;;;5070693;28;20420;-60
2022/11/12 06:00:09;;;;;;;0.50;0.47;;;20.90;54.20;;;;;;5070839;28;20036;-58
2022/11/12 06:02:57;;;;;;;0.60;0.32;;;20.90;54.20;;;;;;5070038;28;20493;-60
2022/11/12 06:05:42;;;;;;;0.93;0.20;;;20.90;54.20;;;;;;5070674;28;20044;-58
2022/11/12 06:08:28;;;;;;;0.68;0.60;;;20.90;54.20;;;;;;5076387;28;20040;-59
2022/11/12 06:11:13;;;;;;;0.73;0.20;;;20.90;54.10;;;;;;5081868;28;20050;-59
2022/11/12 06:13:59;;;;;;;1.60;0.30;;;20.90;54.10;;;;;;5090905;28;20048;-61
2022/11/12 06:16:46;;;;;;;0.40;0.38;;;20.90;54.00;;;;;;5070622;28;20063;-59
2022/11/12 06:19:32;;;;;;;0.50;0.30;;;20.90;54.00;;;;;;5070537;28;20040;-59
2022/11/12 06:22:17;;;;;;;0.43;0.43;;;20.90;54.00;;;;;;5070635;28;20049;-61
2022/11/12 06:25:04;;;;;;;2.80;0.30;;;20.90;54.50;;;;;;5070349;28;20508;-59
2022/11/12 06:27:50;;;;;;;0.30;0.20;;;20.90;53.90;;;;;;5070324;28;20517;-60
2022/11/12 06:30:35;;;;;;;0.20;0.20;;;20.80;53.90;;;;;;5070076;28;20045;-60
2022/11/12 06:33:22;;;;;;;0.30;0.20;;;20.90;53.90;;;;;;5069460;28;20123;-60
2022/11/12 06:36:10;;;;;;;1.67;0.45;;;20.90;53.90;;;;;;5070107;28;20067;-60
2022/11/12 06:38:56;;;;;;;0.20;0.20;;;20.80;53.90;;;;;;5069837;28;20040;-60
2022/11/12 06:41:41;;;;;;;1.45;0.63;;;20.80;53.80;;;;;;5069983;28;20048;-60
2022/11/12 06:44:27;;;;;;;0.45;0.45;;;20.80;53.90;;;;;;5076782;28;20048;-60
2022/11/12 06:47:12;;;;;;;1.23;0.20;;;20.80;53.80;;;;;;5089362;28;20048;-60
2022/11/12 06:49:59;;;;;;;0.35;0.30;;;20.80;53.90;;;;;;5089709;28;20293;-61
2022/11/12 06:52:45;;;;;;;0.20;0.20;;;20.80;53.80;;;;;;5089688;28;20131;-60
2022/11/12 06:55:30;;;;;;;0.47;0.30;;;20.80;53.90;;;;;;5089413;28;20497;-60
2022/11/12 06:58:16;;;;;;;0.70;0.68;;;20.80;54.00;;;;;;5089503;28;20040;-60
2022/11/12 07:01:10;;;;;;;1.60;0.30;;;20.80;54.50;;;;;;5089125;28;20539;-60
2022/11/12 07:03:56;;;;;;;0.82;0.40;;;20.80;54.80;;;;;;5089309;28;20413;-55
2022/11/12 07:06:43;;;;;;;1.85;0.30;;;20.80;54.90;;;;;;5089441;28;20044;-57
2022/11/12 07:09:28;;;;;;;0.60;0.25;;;20.80;55.00;;;;;;5089378;28;20044;-61
2022/11/12 07:12:14;;;;;;;4.10;0.30;;;20.80;55.00;;;;;;5089601;28;20066;-61
2022/11/12 07:14:59;;;;;;;2.05;0.70;;;20.80;55.00;;;;;;5088747;28;20044;-61
2022/11/12 07:17:45;;;;;;;1.77;0.65;;;20.80;55.00;;;;;;5088739;28;20047;-61
2022/11/12 07:20:31;;;;;;;4.18;0.20;;;20.80;55.00;;;;;;5088784;28;20040;-63
2022/11/12 07:23:18;;;;;;;2.63;0.63;;;20.80;54.90;;;;;;5070610;28;20040;-62
2022/11/12 07:26:05;;;;;;;2.03;0.68;;;20.80;54.80;;;;;;5070681;28;20044;-62
2022/11/12 07:28:52;;;;;;;1.30;0.50;;;20.80;54.70;;;;;;5088934;28;20044;-62
2022/11/12 07:31:38;;;;;;;2.35;0.30;;;20.80;55.10;;;;;;5080075;28;20041;-62
2022/11/12 07:34:23;;;;;;;2.33;0.30;;;20.70;54.40;;;;;;5068598;28;20409;-62
2022/11/12 07:37:08;;;;;;;0.88;0.35;;;20.80;54.20;;;;;;5068781;28;20437;-62
2022/11/12 07:39:55;;;;;;;1.30;1.20;;;20.70;54.10;;;;;;5068764;28;20060;-62
2022/11/12 07:42:41;;;;;;;4.72;0.30;;;20.70;54.00;;;;;;5068228;28;20489;-63
2022/11/12 07:45:26;;;;;;;1.02;0.20;;;20.70;53.90;;;;;;5079439;28;20456;-63
2022/11/12 07:48:12;;;;;;;0.52;0.38;;;20.70;53.80;;;;;;5088441;28;20048;-63
2022/11/12 07:51:01;;;;;;;1.27;0.38;;;20.70;53.80;;;;;;5088555;28;20092;-63
2022/11/12 07:53:48;;;;;;;0.52;0.50;;;20.70;53.60;;;;;;5088478;28;20068;-63
2022/11/12 07:56:35;;;;;;;0.63;0.20;;;20.70;53.60;;;;;;5088244;28;20040;-62
2022/11/12 07:59:21;;;;;;;0.75;0.45;;;20.70;53.50;;;;;;5088057;28;20185;-62
2022/11/12 08:02:08;;;;;;;0.63;0.30;;;20.70;53.50;;;;;;5088487;28;20701;-63
2022/11/12 08:04:54;;;;;;;1.75;0.50;;;20.70;53.50;;;;;;5088072;28;20499;-63
2022/11/12 08:07:39;;;;;;;1.67;0.67;;;20.70;53.40;;;;;;5088403;28;20119;-61
2022/11/12 08:10:25;;;;;;;1.27;0.38;;;20.60;53.60;;;;;;5088266;28;20302;-63
2022/11/12 08:13:12;;;;;;;2.40;1.20;;;20.60;53.40;;;;;;5087178;28;20051;-62
2022/11/12 08:15:57;;;;;;;;;;;20.60;53.30;;;;;;5088684;28;20044;-64
2022/11/12 08:18:43;;;;;;;3.78;0.57;;;20.60;53.40;;;;;;5088182;28;19924;-62
2022/11/12 08:21:29;;;;;;;1.23;0.70;;;20.50;53.50;;;;;;5071319;28;20037;-63
2022/11/12 08:24:14;;;;;;;0.98;0.50;;;20.60;53.50;;;;;;5068229;28;20044;-63
2022/11/12 08:27:00;;;;;;;2.28;1.50;;;20.50;53.30;;;;;;5067823;28;20577;-63
2022/11/12 08:29:47;;;;;;;3.45;1.10;;;20.60;53.30;;;;;;5067997;28;20036;-62
2022/11/12 08:32:32;;;;;;;1.77;0.60;;;20.50;53.20;;;;;;5067939;28;20072;-63
2022/11/12 08:35:18;;;;;;;1.42;0.68;;;20.50;53.20;;;;;;5067722;28;20197;-62
2022/11/12 08:38:05;;;;;;;3.47;0.88;;;20.60;53.20;;;;;;5067882;28;20579;-63
2022/11/12 08:40:50;;;;;;;0.77;0.50;;;20.60;53.10;;;;;;5067971;28;20124;-63
2022/11/12 08:43:37;;;;;;;0.80;0.60;;;20.50;53.00;;;;;;5067268;28;20053;-62
2022/11/12 08:46:23;;;;;;;0.47;0.47;;;20.50;52.90;;;;;;5086861;28;20036;-64
2022/11/12 08:49:09;;;;;;;0.63;0.63;;;20.50;52.80;;;;;;5088618;28;20036;-61
2022/11/12 08:51:55;;;;;;;0.82;0.80;;;20.50;52.80;;;;;;5088150;28;20168;-62
2022/11/12 08:54:40;;;;;;;0.63;0.40;;;20.50;52.80;;;;;;5107889;28;20044;-63
2022/11/12 08:57:26;;;;;;;1.60;1.05;;;20.50;52.90;;;;;;5107820;28;20146;-62
2022/11/12 09:00:13;;;;;;;0.98;0.95;;;20.50;52.80;;;;;;5108205;28;20126;-62
2022/11/12 09:03:01;;;;;;;0.80;0.75;;;20.50;52.80;;;;;;5107921;28;20476;-62
2022/11/12 09:05:48;;;;;;;1.20;0.93;;;20.50;52.80;;;;;;5107867;28;20122;-62
2022/11/12 09:08:35;;;;;;;;;;;20.50;52.80;;;;;;5105383;28;20039;-63
2022/11/12 09:11:20;;;;;;;1.08;0.50;;;20.50;52.80;;;;;;5082057;28;19927;-62
2022/11/12 09:14:06;;;;;;;1.45;0.73;;;20.40;52.90;;;;;;5087518;28;20066;-62
2022/11/12 09:16:51;;;;;;;0.63;0.63;;;20.50;52.80;;;;;;5087787;28;20130;-62
2022/11/12 09:19:38;;;;;;;0.75;0.50;;;20.50;52.80;;;;;;5087545;28;20044;-63
2022/11/12 09:22:23;;;;;;;0.52;0.52;;;20.50;52.70;;;;;;5087428;28;20048;-62
2022/11/12 09:25:09;;;;;;;3.55;0.73;;;20.50;52.70;;;;;;5088765;28;20508;-62
2022/11/12 09:27:55;;;;;;;1.08;0.82;;;20.50;52.50;;;;;;5091379;28;20123;-63
2022/11/12 09:30:45;;;;;;;0.40;0.40;;;20.50;52.60;;;;;;5073276;28;20774;-62
2022/11/12 09:33:32;;;;;;;3.33;0.57;;;20.50;52.50;;;;;;5091225;28;20475;-62
2022/11/12 09:36:19;;;;;;;0.80;0.77;;;20.50;52.50;;;;;;5091200;28;20039;-62
2022/11/12 09:39:05;;;;;;;3.13;1.38;;;20.60;52.60;;;;;;5091451;28;20052;-63
2022/11/12 09:41:50;;;;;;;1.38;0.40;;;20.60;52.50;;;;;;5090781;28;20040;-63
2022/11/12 09:44:40;;;;;;;1.30;0.88;;;20.60;52.50;;;;;;5090844;28;20047;-62
2022/11/12 09:47:29;;;;;;;1.88;0.52;;;20.60;52.40;;;;;;5090831;28;20048;-61
2022/11/12 09:50:21;;;;;;;3.25;0.77;;;20.60;52.50;;;;;;5091025;28;20040;-61
2022/11/12 09:53:14;;;;;;;0.85;0.80;;;20.60;52.30;;;;;;5090776;28;20040;-61
2022/11/12 09:56:01;;;;;;;0.68;0.55;;;20.70;52.40;;;;;;5091084;28;20036;-61
2022/11/12 09:58:47;;;;;;;2.17;0.70;;;20.70;52.40;;;;;;5090779;28;20048;-62
2022/11/12 10:01:43;;;;;;;1.17;0.67;;;20.70;52.30;;;;;;5091099;28;20109;-61
2022/11/12 10:04:49;;;;;;;6.68;2.05;;;20.70;52.20;;;;;;5090633;28;20742;-61
2022/11/12 10:07:48;;;;;;;3.00;1.15;;;20.80;52.20;;;;;;5090725;28;20048;-62
2022/11/12 10:10:44;;;;;;;1.55;0.40;;;20.80;52.20;;;;;;5090396;28;20511;-61
2022/11/12 10:13:42;;;;;;;0.68;0.57;;;20.80;52.10;;;;;;5090610;28;20511;-62
2022/11/12 10:16:48;;;;;;;0.88;0.85;;;20.80;52.10;;;;;;5090861;28;20068;-61
2022/11/12 10:19:53;;;;;;;4.40;1.10;;;20.90;52.10;;;;;;5090519;28;20044;-62
2022/11/12 10:22:56;;;;;;;0.80;0.80;;;20.90;52.00;;;;;;5090402;28;20040;-61
2022/11/12 10:25:45;;;;;;;0.75;0.75;;;20.90;52.00;;;;;;5090038;28;20601;-61
2022/11/12 10:28:39;;;;;;;0.95;0.60;;;20.90;51.90;;;;;;5090178;28;20095;-61
2022/11/12 10:31:25;;;;;;;2.13;1.20;;;21.00;51.80;;;;;;5090179;28;20094;-62
2022/11/12 10:34:17;;;;;;;1.85;1.00;;;21.00;51.80;;;;;;5071673;28;20040;-62
2022/11/12 10:37:06;;;;;;;1.13;0.82;;;21.00;51.70;;;;;;5089577;28;20043;-61
2022/11/12 10:39:52;;;;;;;1.02;0.93;;;21.00;52.20;;;;;;5089717;28;20508;-62
2022/11/12 10:42:56;;;;;;;1.65;0.40;;;21.10;51.50;;;;;;5089399;28;20056;-61
2022/11/12 10:45:42;;;;;;;1.20;1.10;;;21.20;51.50;;;;;;5089877;28;20050;-61
2022/11/12 10:48:32;;;;;;;0.77;0.60;;;21.10;51.40;;;;;;5070513;28;20571;-61
2022/11/12 10:51:25;;;;;;;0.98;0.73;;;21.20;51.30;;;;;;5073666;28;20044;-62
2022/11/12 10:54:27;;;;;;;1.13;0.73;;;21.30;51.20;;;;;;5094319;28;20040;-62
2022/11/12 10:57:21;;;;;;;0.43;0.43;;;21.30;51.00;;;;;;5110056;28;20172;-62
2022/11/12 11:00:18;;;;;;;1.10;0.68;;;21.40;51.00;;;;;;5091669;28;20055;-62
2022/11/12 11:03:07;;;;;;;0.73;0.70;;;21.40;50.90;;;;;;5110907;28;20070;-62
2022/11/12 11:05:56;;;;;;;1.92;1.33;;;21.40;50.80;;;;;;5110309;28;20502;-62
2022/11/12 11:08:44;;;;;;;0.65;0.65;;;21.50;50.70;;;;;;5109296;28;20050;-62
2022/11/12 11:11:31;;;;;;;1.95;1.00;;;21.50;50.60;;;;;;5099268;28;20042;-62
2022/11/12 11:14:30;;;;;;;;;;;21.60;50.60;;;;;;5089744;28;20040;-62
2022/11/12 11:17:18;;;;;;;1.50;0.70;;;21.60;50.60;;;;;;5089355;28;20031;-62
2022/11/12 11:20:06;;;;;;;1.27;1.17;;;21.60;50.60;;;;;;5089121;28;20048;-62
2022/11/12 11:22:55;;;;;;;1.25;1.15;;;21.60;50.60;;;;;;5088704;28;20032;-63
2022/11/12 11:25:43;;;;;;;1.73;0.70;;;21.70;50.50;;;;;;5071110;28;20048;-62
2022/11/12 11:28:37;;;;;;;0.68;0.57;;;21.80;50.40;;;;;;5088860;28;20165;-62
2022/11/12 11:31:34;;;;;;;0.60;0.60;;;21.80;50.40;;;;;;5089020;28;20048;-62
2022/11/12 11:34:31;;;;;;;1.77;0.77;;;21.90;50.40;;;;;;5088847;28;20086;-62
2022/11/12 11:37:25;;;;;;;1.95;0.50;;;21.90;50.40;;;;;;5071220;28;20048;-62
2022/11/12 11:40:20;;;;;;;0.77;0.38;;;21.90;50.30;;;;;;5068671;28;20705;-62
2022/11/12 11:43:26;;;;;;;3.30;1.38;;;21.90;50.20;;;;;;5068250;28;20048;-62
2022/11/12 11:46:21;;;;;;;1.38;0.82;;;22.00;50.20;;;;;;5086159;28;20157;-62
2022/11/12 11:49:29;;;;;;;0.63;0.63;;;22.00;50.10;;;;;;5087902;28;20072;-62
2022/11/12 11:52:29;;;;;;;2.25;0.70;;;22.10;50.10;;;;;;5088404;28;20495;-61
2022/11/12 11:55:32;;;;;;;0.70;0.40;;;22.10;50.10;;;;;;5088470;28;20114;-62
2022/11/12 11:58:43;;;;;;;0.50;0.47;;;22.20;50.00;;;;;;5088701;28;20040;-62
2022/11/12 12:01:45;;;;;;;0.52;0.50;;;22.20;50.00;;;;;;5088468;28;20112;-62
2022/11/12 12:04:46;;;;;;;0.70;0.70;;;22.30;50.00;;;;;;5088067;28;20044;-62
2022/11/12 12:07:41;;;;;;;0.98;0.98;;;22.30;50.00;;;;;;5088366;28;20052;-62
2022/11/12 12:10:35;;;;;;;2.88;0.32;;;22.30;49.90;;;;;;5088156;28;20070;-61
2022/11/12 12:13:32;;;;;;;2.70;0.77;;;22.40;50.00;;;;;;5088236;28;20181;-62
2022/11/12 12:16:38;;;;;;;1.00;0.90;;;22.40;49.90;;;;;;5088333;28;20492;-62
2022/11/12 12:19:39;;;;;;;0.65;0.60;;;22.40;49.80;;;;;;5087776;28;20048;-61
2022/11/12 12:22:33;;;;;;;1.95;0.70;;;22.50;49.80;;;;;;5088304;28;20063;-62
2022/11/12 12:25:24;;;;;;;0.60;0.40;;;22.50;49.80;;;;;;5070031;28;20036;-62
2022/11/12 12:28:20;;;;;;;1.67;0.75;;;22.60;49.80;;;;;;5067765;28;20056;-62
2022/11/12 12:31:13;;;;;;;0.82;0.82;;;22.60;49.80;;;;;;5067825;28;20060;-62
2022/11/12 12:34:02;;;;;;;1.40;0.73;;;22.70;49.80;;;;;;5067210;28;20036;-62
2022/11/12 12:36:54;;;;;;;0.73;0.50;;;22.70;49.70;;;;;;5049970;28;20056;-63
2022/11/12 12:39:47;;;;;;;0.70;0.70;;;22.70;49.70;;;;;;5067716;28;20036;-62
2022/11/12 12:42:40;;;;;;;1.02;1.00;;;22.80;49.70;;;;;;5067532;28;20045;-62
2022/11/12 12:45:34;;;;;;;0.93;0.80;;;22.80;49.70;;;;;;5078754;28;20115;-62
2022/11/12 12:48:22;;;;;;;1.08;0.88;;;22.90;49.70;;;;;;5087834;28;20048;-62
2022/11/12 12:51:08;;;;;;;0.80;0.80;;;22.90;49.70;;;;;;5087799;28;20044;-61
2022/11/12 12:53:54;;;;;;;0.60;0.60;;;23.00;49.70;;;;;;5087860;28;20040;-61
2022/11/12 12:56:46;;;;;;;0.68;0.50;;;23.00;49.60;;;;;;5087772;28;20037;-62
2022/11/12 12:59:32;;;;;;;0.65;0.63;;;23.10;49.60;;;;;;5093529;28;20043;-62
2022/11/12 13:02:21;;;;;;;0.60;0.40;;;23.10;49.50;;;;;;5112511;28;20048;-62
2022/11/12 13:05:21;;;;;;;1.92;0.70;;;23.10;49.50;;;;;;5112012;28;20236;-62
2022/11/12 13:08:11;;;;;;;1.15;1.10;;;23.20;49.50;;;;;;5112289;28;20043;-62
2022/11/12 13:10:58;;;;;;;0.73;0.73;;;23.20;49.50;;;;;;5106128;28;20082;-62
2022/11/12 13:13:44;;;;;;;1.65;1.10;;;23.20;49.40;;;;;;5078781;28;20131;-62
2022/11/12 13:16:57;;;;;;;1.77;0.50;;;23.20;49.30;;;;;;5091732;28;20086;-62
2022/11/12 13:19:47;;;;;;;1.02;1.00;;;23.30;49.30;;;;;;5091162;28;20044;-62
2022/11/12 13:22:50;;;;;;;2.78;0.75;;;23.30;49.30;;;;;;5091547;28;20127;-62
2022/11/12 13:25:37;;;;;;;3.75;1.10;;;23.40;49.20;;;;;;5091468;28;20036;-62
2022/11/12 13:28:23;;;;;;;;;;;23.40;49.20;;;;;;5091857;28;20052;-62
2022/11/12 13:31:25;;;;;;;0.73;0.50;;;23.30;49.20;;;;;;5073381;28;20048;-62
2022/11/12 13:34:20;;;;;;;0.90;0.90;;;23.40;49.30;;;;;;5070740;28;20072;-62
2022/11/12 13:37:12;;;;;;;1.17;0.65;;;23.40;49.20;;;;;;5070981;28;20037;-61
2022/11/12 13:40:03;;;;;;;1.38;0.75;;;23.50;49.20;;;;;;5071030;28;20041;-61
2022/11/12 13:42:48;;;;;;;1.35;0.60;;;23.50;49.20;;;;;;5079934;28;20056;-61
2022/11/12 13:45:46;;;;;;;0.98;0.75;;;23.50;49.10;;;;;;5091325;28;20040;-61
2022/11/12 13:48:36;;;;;;;2.20;1.08;;;23.60;49.10;;;;;;5091024;28;20056;-61
2022/11/12 13:51:27;;;;;;;7.80;0.75;;;23.60;49.00;;;;;;5091075;28;20481;-61
2022/11/12 13:54:30;;;;;;;1.23;0.65;;;23.60;49.00;;;;;;5091096;28;20901;-61
2022/11/12 13:57:26;;;;;;;0.80;0.80;;;23.60;48.90;;;;;;5091045;28;20519;-61
2022/11/12 14:00:27;;;;;;;1.10;0.73;;;23.70;49.00;;;;;;5073005;28;20079;-62
2022/11/12 14:03:18;;;;;;;1.52;1.42;;;23.70;48.90;;;;;;5070513;28;20496;-61
2022/11/12 14:06:14;;;;;;;1.40;1.27;;;23.70;48.90;;;;;;5070484;28;20041;-61
2022/11/12 14:09:18;;;;;;;2.00;1.00;;;23.70;48.90;;;;;;5070658;28;20556;-62
2022/11/12 14:12:31;;;;;;;1.75;0.50;;;23.70;48.80;;;;;;5084815;28;20298;-62
2022/11/12 14:15:36;;;;;;;1.05;0.52;;;23.70;48.70;;;;;;5090500;28;20040;-61
2022/11/12 14:18:31;;;;;;;3.53;0.70;;;23.70;48.70;;;;;;5090768;28;20123;-62
2022/11/12 14:21:18;;;;;;;1.48;1.00;;;23.70;48.70;;;;;;5090437;28;20428;-62
2022/11/12 14:24:04;;;;;;;0.93;0.73;;;23.70;48.70;;;;;;5090754;28;20080;-62
2022/11/12 14:26:50;;;;;;;1.08;0.40;;;23.70;48.70;;;;;;5090672;28;20062;-62
2022/11/12 14:29:35;;;;;;;1.35;1.08;;;23.70;48.70;;;;;;5090316;28;20051;-62
2022/11/12 14:32:21;;;;;;;1.63;0.90;;;23.70;48.70;;;;;;5090407;28;20044;-62
2022/11/12 14:35:32;;;;;;;0.55;0.55;;;23.70;48.70;;;;;;5090200;28;20067;-61
2022/11/12 14:38:21;;;;;;;2.15;2.05;;;23.80;48.60;;;;;;5090288;28;20036;-62
2022/11/12 14:41:09;;;;;;;1.50;0.93;;;23.70;48.60;;;;;;5090047;28;20126;-62
2022/11/12 14:43:57;;;;;;;1.50;0.88;;;23.70;48.60;;;;;;5071360;28;20397;-62
2022/11/12 14:46:46;;;;;;;0.82;0.82;;;23.70;48.60;;;;;;5089808;28;20055;-62
2022/11/12 14:49:36;;;;;;;1.27;1.20;;;23.70;48.60;;;;;;5085305;28;20418;-62
2022/11/12 14:52:27;;;;;;;2.35;1.08;;;23.70;48.50;;;;;;5082564;28;20044;-61
2022/11/12 14:55:16;;;;;;;2.10;0.70;;;23.70;48.50;;;;;;5089953;28;20044;-62
2022/11/12 14:58:02;;;;;;;6.18;1.38;;;23.70;48.40;;;;;;5089447;28;20056;-62
2022/11/12 15:00:49;;;;;;;1.95;1.85;;;23.70;48.50;;;;;;5099891;28;20036;-62
2022/11/12 15:03:35;;;;;;;1.73;1.63;;;23.60;48.30;;;;;;5110279;28;20043;-62